createdAt,value
2022-12-22T00:01:35.812Z,79.71
2022-12-22T00:04:21.268Z,80.29
2022-12-22T00:07:06.592Z,79.75
2022-12-22T00:09:51.999Z,79.76
2022-12-22T00:12:38.137Z,79.94
2022-12-22T00:15:24.571Z,80.17
2022-12-22T00:18:11.803Z,80.27
2022-12-22T00:20:57.363Z,80.09
2022-12-22T00:23:42.797Z,79.93
2022-12-22T00:26:28.317Z,80.65
2022-12-22T00:29:14.205Z,80.29
2022-12-22T00:32:00.282Z,80.65
2022-12-22T00:34:48.228Z,80.91
2022-12-22T00:37:33.777Z,80.94
2022-12-22T00:40:20.188Z,80.83
2022-12-22T00:43:05.779Z,80.80
2022-12-22T00:45:51.376Z,80.53
2022-12-22T00:48:40.643Z,81.20
2022-12-22T00:51:29.555Z,80.81
2022-12-22T00:54:15.265Z,81.46
2022-12-22T00:57:01.071Z,81.34
2022-12-22T00:59:47.658Z,81.62
2022-12-22T01:02:33.818Z,81.37
2022-12-22T01:05:19.206Z,81.26
2022-12-22T01:08:06.166Z,82.09
2022-12-22T01:10:52.305Z,81.65
2022-12-22T01:13:37.703Z,81.82
2022-12-22T01:16:24.001Z,81.58
2022-12-22T01:19:09.172Z,80.86
2022-12-22T01:21:55.132Z,81.35
2022-12-22T01:24:41.676Z,80.93
2022-12-22T01:27:28.268Z,81.05
2022-12-22T01:30:13.560Z,80.77
2022-12-22T01:32:59.329Z,80.66
2022-12-22T01:35:47.274Z,80.17
2022-12-22T01:38:33.428Z,80.90
2022-12-22T01:41:22.142Z,80.20
2022-12-22T01:44:08.014Z,80.18
2022-12-22T01:47:02.212Z,80.15
2022-12-22T01:49:51.730Z,79.93
2022-12-22T01:52:41.010Z,79.97
2022-12-22T01:55:30.573Z,79.97
2022-12-22T01:58:17.198Z,79.50
2022-12-22T02:01:05.549Z,80.06
2022-12-22T02:03:51.136Z,79.88
2022-12-22T02:06:44.462Z,79.67
2022-12-22T02:09:47.759Z,79.37
2022-12-22T02:12:42.225Z,79.16
2022-12-22T02:15:37.432Z,78.80
2022-12-22T02:18:30.872Z,79.09
2022-12-22T02:21:21.924Z,78.54
2022-12-22T02:24:26.454Z,78.69
2022-12-22T02:27:17.183Z,78.85
2022-12-22T02:30:10.170Z,78.58
2022-12-22T02:33:03.596Z,78.07
2022-12-22T02:36:01.124Z,78.36
2022-12-22T02:38:56.881Z,78.67
2022-12-22T02:41:53.411Z,78.55
2022-12-22T02:44:50.932Z,78.18
2022-12-22T02:47:42.330Z,78.39
2022-12-22T02:50:37.066Z,78.87
2022-12-22T02:53:25.496Z,79.07
2022-12-22T02:56:17.527Z,78.66
2022-12-22T02:59:03.408Z,78.83
2022-12-22T03:01:50.626Z,79.15
2022-12-22T03:04:36.110Z,78.93
2022-12-22T03:07:21.952Z,79.02
2022-12-22T03:10:07.690Z,79.30
2022-12-22T03:12:53.216Z,79.03
2022-12-22T03:15:38.456Z,79.10
2022-12-22T03:18:27.865Z,78.72
2022-12-22T03:21:14.000Z,79.13
2022-12-22T03:23:59.795Z,79.06
2022-12-22T03:26:28.943Z,79.17
2022-12-22T03:28:56.991Z,78.98
2022-12-22T03:31:24.986Z,78.44
2022-12-22T03:33:54.296Z,78.45
2022-12-22T03:36:22.177Z,78.19
2022-12-22T03:38:50.058Z,78.16
2022-12-22T03:41:31.918Z,77.90
2022-12-22T03:44:17.267Z,77.93
2022-12-22T03:46:45.263Z,78.01
2022-12-22T03:49:14.800Z,77.45
2022-12-22T03:51:44.742Z,77.95
2022-12-22T03:54:14.046Z,77.65
2022-12-22T03:56:42.208Z,77.40
2022-12-22T03:59:10.341Z,77.80
2022-12-22T04:01:40.756Z,77.54
2022-12-22T04:04:09.007Z,77.69
2022-12-22T04:06:38.360Z,77.96
2022-12-22T04:09:06.911Z,77.44
2022-12-22T04:11:52.127Z,77.41
2022-12-22T04:14:23.124Z,77.74
2022-12-22T04:16:53.343Z,77.34
2022-12-22T04:19:21.357Z,77.80
2022-12-22T04:21:50.623Z,76.96
2022-12-22T04:24:18.525Z,77.53
2022-12-22T04:26:46.404Z,77.54
2022-12-22T04:29:14.354Z,77.40
2022-12-22T04:31:42.371Z,77.39
2022-12-22T04:34:10.603Z,77.25
2022-12-22T04:36:38.963Z,77.12
2022-12-22T04:39:08.183Z,76.98
2022-12-22T04:41:36.143Z,76.76
2022-12-22T04:44:04.214Z,76.66
2022-12-22T04:46:33.387Z,76.27
2022-12-22T04:49:01.438Z,76.00
2022-12-22T04:51:30.189Z,75.66
2022-12-22T04:53:58.113Z,75.28
2022-12-22T04:56:27.546Z,75.64
2022-12-22T04:58:55.430Z,75.86
2022-12-22T05:01:24.162Z,75.57
2022-12-22T05:03:52.254Z,75.35
2022-12-22T05:06:20.233Z,75.18
2022-12-22T05:08:48.230Z,74.88
2022-12-22T05:11:16.078Z,74.95
2022-12-22T05:13:45.300Z,75.56
2022-12-22T05:16:15.175Z,75.49
2022-12-22T05:18:44.927Z,75.26
2022-12-22T05:21:14.492Z,74.84
2022-12-22T05:23:42.835Z,75.24
2022-12-22T05:26:11.794Z,75.25
2022-12-22T05:28:39.777Z,75.24
2022-12-22T05:31:11.505Z,75.38
2022-12-22T05:33:39.442Z,75.37
2022-12-22T05:36:08.153Z,75.79
2022-12-22T05:38:36.186Z,75.94
2022-12-22T05:41:05.017Z,75.85
2022-12-22T05:43:33.031Z,75.43
2022-12-22T05:46:03.504Z,75.55
2022-12-22T05:48:37.926Z,75.65
2022-12-22T05:51:08.312Z,75.26
2022-12-22T05:53:38.060Z,75.14
2022-12-22T05:56:06.760Z,74.54
2022-12-22T05:58:35.416Z,74.93
2022-12-22T06:01:03.703Z,74.21
2022-12-22T06:03:33.264Z,74.22
2022-12-22T06:06:01.402Z,74.47
2022-12-22T06:08:29.517Z,74.42
2022-12-22T06:10:59.149Z,73.83
2022-12-22T06:13:28.287Z,74.00
2022-12-22T06:15:56.442Z,73.52
2022-12-22T06:18:24.405Z,73.59
2022-12-22T06:20:54.424Z,73.44
2022-12-22T06:23:22.806Z,73.36
2022-12-22T06:25:57.682Z,73.84
2022-12-22T06:28:26.381Z,73.63
2022-12-22T06:30:54.737Z,74.05
2022-12-22T06:33:22.743Z,74.14
2022-12-22T06:35:57.615Z,74.40
2022-12-22T06:38:28.831Z,74.20
2022-12-22T06:40:57.058Z,74.34
2022-12-22T06:43:24.062Z,74.15
2022-12-22T06:45:51.930Z,74.13
2022-12-22T06:48:20.010Z,73.93
2022-12-22T06:50:47.875Z,73.91
2022-12-22T06:53:15.859Z,73.99
2022-12-22T06:55:45.336Z,74.51
2022-12-22T06:58:13.304Z,75.18
2022-12-22T07:00:41.325Z,75.00
2022-12-22T07:03:09.821Z,75.88
2022-12-22T07:05:37.968Z,75.97
2022-12-22T07:08:09.053Z,76.28
2022-12-22T07:10:55.401Z,76.13
2022-12-22T07:13:25.078Z,76.33
2022-12-22T07:15:59.905Z,76.57
2022-12-22T07:18:29.262Z,76.90
2022-12-22T07:20:57.359Z,76.29
2022-12-22T07:23:25.276Z,76.17
2022-12-22T07:25:54.049Z,75.50
2022-12-22T07:28:22.520Z,75.23
2022-12-22T07:30:52.932Z,75.11
2022-12-22T07:33:39.567Z,74.38
2022-12-22T07:36:26.006Z,74.62
2022-12-22T07:39:13.621Z,74.71
2022-12-22T07:42:18.080Z,74.20
2022-12-22T07:45:05.173Z,74.50
2022-12-22T07:47:53.458Z,74.40
2022-12-22T07:50:39.093Z,74.30
2022-12-22T07:53:06.991Z,74.87
2022-12-22T07:55:38.009Z,74.36
2022-12-22T07:58:05.890Z,75.19
2022-12-22T08:00:33.761Z,74.57
2022-12-22T08:03:21.587Z,75.27
2022-12-22T08:05:49.699Z,75.38
2022-12-22T08:08:17.622Z,75.09
2022-12-22T08:11:05.504Z,75.16
2022-12-22T08:13:57.343Z,74.97
2022-12-22T08:16:48.250Z,74.27
2022-12-22T08:19:17.648Z,74.44
2022-12-22T08:21:52.453Z,73.79
2022-12-22T08:24:21.653Z,73.92
2022-12-22T08:26:55.214Z,74.23
2022-12-22T08:29:44.469Z,73.66
2022-12-22T08:32:14.027Z,73.69
2022-12-22T08:34:43.940Z,74.03
2022-12-22T08:37:35.174Z,73.83
2022-12-22T08:40:08.032Z,74.25
2022-12-22T08:42:59.305Z,75.47
2022-12-22T08:45:46.141Z,76.43
2022-12-22T08:48:14.267Z,76.58
2022-12-22T08:50:43.567Z,76.91
2022-12-22T08:53:30.159Z,77.22
2022-12-22T08:55:59.717Z,76.95
2022-12-22T08:58:27.820Z,77.09
2022-12-22T09:00:55.675Z,76.82
2022-12-22T09:03:23.704Z,76.69
2022-12-22T09:05:53.085Z,76.51
2022-12-22T09:08:21.015Z,77.19
2022-12-22T09:10:48.942Z,77.84
2022-12-22T09:13:17.637Z,77.84
2022-12-22T09:15:45.527Z,77.99
2022-12-22T09:18:13.756Z,77.42
2022-12-22T09:20:41.629Z,77.36
2022-12-22T09:23:11.175Z,77.35
2022-12-22T09:25:39.397Z,77.07
2022-12-22T09:28:08.506Z,78.68
2022-12-22T09:30:36.581Z,79.27
2022-12-22T09:33:05.052Z,79.36
2022-12-22T09:35:32.976Z,79.02
2022-12-22T09:38:01.070Z,78.99
2022-12-22T09:40:30.437Z,78.93
2022-12-22T09:42:59.379Z,79.14
2022-12-22T09:45:27.391Z,78.86
2022-12-22T09:47:56.556Z,78.65
2022-12-22T09:50:26.955Z,78.25
2022-12-22T09:52:56.952Z,78.55
2022-12-22T09:55:39.683Z,78.55
2022-12-22T09:58:25.742Z,78.67
2022-12-22T10:01:11.605Z,78.62
2022-12-22T10:03:46.347Z,78.90
2022-12-22T10:06:21.361Z,78.45
2022-12-22T10:08:49.236Z,79.28
2022-12-22T10:11:19.745Z,79.38
2022-12-22T10:13:47.755Z,79.15
2022-12-22T10:16:21.667Z,78.97
2022-12-22T10:18:59.414Z,78.57
2022-12-22T10:21:28.142Z,78.35
2022-12-22T10:23:56.225Z,78.61
2022-12-22T10:26:31.216Z,78.68
2022-12-22T10:29:04.612Z,78.63
2022-12-22T10:31:34.149Z,78.85
2022-12-22T10:34:13.820Z,78.86
2022-12-22T10:36:47.419Z,78.00
2022-12-22T10:39:21.189Z,78.14
2022-12-22T10:41:53.082Z,78.54
2022-12-22T10:44:24.974Z,79.77
2022-12-22T10:46:55.477Z,79.80
2022-12-22T10:49:26.096Z,79.66
2022-12-22T10:51:56.394Z,79.19
2022-12-22T10:54:33.141Z,78.57
2022-12-22T10:57:05.914Z,78.03
2022-12-22T10:59:34.393Z,77.93
2022-12-22T11:02:28.304Z,77.88
2022-12-22T11:05:01.443Z,77.06
2022-12-22T11:07:31.450Z,76.56
2022-12-22T11:09:59.508Z,76.27
2022-12-22T11:12:39.203Z,76.25
2022-12-22T11:15:24.178Z,75.96
2022-12-22T11:18:03.131Z,75.66
2022-12-22T11:20:52.638Z,75.65
2022-12-22T11:23:31.295Z,74.85
2022-12-22T11:26:07.447Z,74.92
2022-12-22T11:28:58.770Z,75.39
2022-12-22T11:31:43.029Z,75.15
2022-12-22T11:34:24.887Z,75.15
2022-12-22T11:37:05.638Z,74.42
2022-12-22T11:39:42.013Z,73.41
2022-12-22T11:42:36.033Z,73.75
2022-12-22T11:45:11.505Z,73.32
2022-12-22T11:47:48.859Z,72.52
2022-12-22T11:51:01.163Z,73.03
2022-12-22T11:53:43.204Z,72.03
2022-12-22T11:56:22.880Z,72.49
2022-12-22T11:59:08.605Z,72.52
2022-12-22T12:01:54.247Z,72.51
2022-12-22T12:04:38.140Z,72.38
2022-12-22T12:07:26.008Z,72.33
2022-12-22T12:10:04.434Z,71.68
2022-12-22T12:12:41.686Z,71.03
2022-12-22T12:15:23.766Z,70.85
2022-12-22T12:18:14.283Z,71.43
2022-12-22T12:20:59.223Z,71.17
2022-12-22T12:23:51.253Z,72.31
2022-12-22T12:26:24.047Z,72.45
2022-12-22T12:29:05.806Z,72.09
2022-12-22T12:31:39.871Z,71.42
2022-12-22T12:34:15.475Z,71.53
2022-12-22T12:36:48.885Z,70.96
2022-12-22T12:39:23.722Z,70.85
2022-12-22T12:42:00.489Z,71.37
2022-12-22T12:44:32.735Z,70.95
2022-12-22T12:47:24.044Z,71.77
2022-12-22T12:50:30.559Z,72.80
2022-12-22T12:53:08.807Z,72.63
2022-12-22T12:55:56.047Z,72.87
2022-12-22T12:58:50.401Z,72.68
2022-12-22T13:01:57.929Z,72.91
2022-12-22T13:05:06.011Z,73.16
2022-12-22T13:08:10.923Z,72.97
2022-12-22T13:11:10.539Z,73.75
2022-12-22T13:13:48.721Z,72.84
2022-12-22T13:16:29.396Z,73.03
2022-12-22T13:19:00.188Z,72.61
2022-12-22T13:21:55.321Z,71.83
2022-12-22T13:24:29.872Z,72.12
2022-12-22T13:27:06.814Z,72.36
2022-12-22T13:29:44.076Z,72.00
2022-12-22T13:32:34.892Z,72.21
2022-12-22T13:38:01.564Z,72.83
2022-12-22T13:40:32.940Z,72.70
2022-12-22T13:43:04.399Z,72.58
2022-12-22T13:45:37.071Z,73.67
2022-12-22T13:48:10.698Z,73.72
2022-12-22T13:50:40.161Z,73.13
2022-12-22T13:53:13.041Z,73.28
2022-12-22T13:55:53.262Z,72.89
2022-12-22T13:58:27.727Z,74.03
2022-12-22T14:01:03.996Z,73.15
2022-12-22T14:03:59.128Z,72.89
2022-12-22T14:06:28.349Z,72.81
2022-12-22T14:09:11.131Z,73.58
2022-12-22T14:11:45.561Z,73.59
2022-12-22T14:14:19.640Z,74.07
2022-12-22T14:16:50.887Z,74.51
2022-12-22T14:19:20.859Z,74.23
2022-12-22T14:21:56.044Z,74.40
2022-12-22T14:24:33.200Z,74.78
2022-12-22T14:27:06.016Z,75.20
2022-12-22T14:29:34.105Z,75.14
2022-12-22T14:32:04.260Z,74.91
2022-12-22T14:34:34.071Z,74.44
2022-12-22T14:37:03.270Z,74.60
2022-12-22T14:39:33.085Z,74.79
2022-12-22T14:42:03.593Z,74.08
2022-12-22T14:44:36.359Z,74.50
2022-12-22T14:47:17.431Z,74.56
2022-12-22T14:49:48.476Z,73.47
2022-12-22T14:52:22.946Z,73.82
2022-12-22T14:54:53.174Z,73.43
2022-12-22T14:57:29.424Z,73.30
2022-12-22T15:00:07.007Z,74.18
2022-12-22T15:02:40.069Z,73.70
2022-12-22T15:05:16.880Z,73.46
2022-12-22T15:08:05.436Z,73.21
2022-12-22T15:10:39.427Z,73.42
2022-12-22T15:13:12.499Z,73.44
2022-12-22T15:15:41.877Z,73.91
2022-12-22T15:18:14.760Z,73.41
2022-12-22T15:20:42.787Z,73.03
2022-12-22T15:23:13.502Z,72.97
2022-12-22T15:25:41.365Z,73.94
2022-12-22T15:28:09.534Z,73.63
2022-12-22T15:30:38.354Z,73.57
2022-12-22T15:33:12.784Z,73.10
2022-12-22T15:35:41.595Z,73.63
2022-12-22T15:38:13.949Z,72.98
2022-12-22T15:40:42.239Z,73.56
2022-12-22T15:43:28.676Z,72.92
2022-12-22T15:45:59.560Z,72.48
2022-12-22T15:48:32.846Z,72.63
2022-12-22T15:51:03.328Z,72.63
2022-12-22T15:53:33.468Z,72.98
2022-12-22T15:56:02.158Z,72.59
2022-12-22T15:58:35.370Z,72.39
2022-12-22T16:01:03.725Z,72.23
2022-12-22T16:03:33.951Z,73.01
2022-12-22T16:06:02.258Z,72.36
2022-12-22T16:08:34.248Z,73.55
2022-12-22T16:11:02.501Z,73.61
2022-12-22T16:13:31.342Z,73.09
2022-12-22T16:16:00.351Z,72.85
2022-12-22T16:18:28.823Z,73.77
2022-12-22T16:21:04.595Z,73.96
2022-12-22T16:23:32.758Z,74.07
2022-12-22T16:26:02.655Z,73.93
2022-12-22T16:28:31.778Z,73.61
2022-12-22T16:31:01.119Z,73.31
2022-12-22T16:33:29.321Z,73.51
2022-12-22T16:35:58.609Z,73.12
2022-12-22T16:38:26.725Z,73.37
2022-12-22T16:40:55.043Z,73.15
2022-12-22T16:46:15.961Z,72.96
2022-12-22T16:48:46.696Z,72.95
2022-12-22T16:51:20.237Z,72.52
2022-12-22T16:53:48.240Z,72.19
2022-12-22T16:56:20.125Z,72.45
2022-12-22T16:58:48.758Z,73.31
2022-12-22T17:01:36.085Z,72.95
2022-12-22T17:04:09.257Z,72.38
2022-12-22T17:06:39.110Z,73.20
2022-12-22T17:09:12.651Z,73.66
2022-12-22T17:11:40.707Z,73.95
2022-12-22T17:14:18.135Z,74.36
2022-12-22T17:16:46.124Z,74.54
2022-12-22T17:19:14.152Z,74.81
2022-12-22T17:21:43.396Z,75.56
2022-12-22T17:24:14.852Z,74.97
2022-12-22T17:26:43.714Z,74.97
2022-12-22T17:29:16.858Z,75.22
2022-12-22T17:31:44.873Z,75.17
2022-12-22T17:34:15.408Z,74.95
2022-12-22T17:36:46.775Z,75.28
2022-12-22T17:39:16.237Z,75.84
2022-12-22T17:41:46.776Z,76.04
2022-12-22T17:44:18.877Z,76.40
2022-12-22T17:46:46.842Z,75.77
2022-12-22T17:49:19.961Z,75.65
2022-12-22T17:51:49.511Z,75.14
2022-12-22T17:54:24.599Z,76.13
2022-12-22T17:56:53.508Z,75.86
2022-12-22T17:59:21.660Z,75.32
2022-12-22T18:01:49.704Z,75.21
2022-12-22T18:04:18.167Z,74.89
2022-12-22T18:06:46.893Z,75.28
2022-12-22T18:09:21.535Z,75.33
2022-12-22T18:11:49.920Z,75.16
2022-12-22T18:14:18.370Z,74.46
2022-12-22T18:16:46.892Z,74.30
2022-12-22T18:19:15.091Z,74.10
2022-12-22T18:21:43.160Z,73.55
2022-12-22T18:24:17.796Z,73.42
2022-12-22T18:26:47.043Z,73.38
2022-12-22T18:29:15.818Z,73.47
2022-12-22T18:31:44.979Z,73.45
2022-12-22T18:34:13.739Z,72.90
2022-12-22T18:36:44.081Z,72.60
2022-12-22T18:39:20.274Z,73.26
2022-12-22T18:41:48.964Z,73.10
2022-12-22T18:44:17.728Z,72.91
2022-12-22T18:46:45.938Z,72.26
2022-12-22T18:49:14.095Z,72.58
2022-12-22T18:51:43.989Z,72.89
2022-12-22T18:54:25.652Z,72.97
2022-12-22T18:56:53.816Z,73.19
2022-12-22T18:59:28.037Z,72.51
2022-12-22T19:02:02.802Z,72.20
2022-12-22T19:04:31.408Z,72.52
2022-12-22T19:06:59.406Z,72.47
2022-12-22T19:09:29.025Z,72.38
2022-12-22T19:11:57.020Z,73.03
2022-12-22T19:14:24.974Z,73.28
2022-12-22T19:16:54.625Z,73.08
2022-12-22T19:19:22.750Z,73.31
2022-12-22T19:21:50.785Z,73.53
2022-12-22T19:24:18.988Z,72.62
2022-12-22T19:26:49.144Z,72.72
2022-12-22T19:29:18.515Z,72.29
2022-12-22T19:31:46.712Z,72.14
2022-12-22T19:34:20.861Z,72.05
2022-12-22T19:36:49.000Z,72.05
2022-12-22T19:39:17.822Z,72.73
2022-12-22T19:41:50.715Z,72.44
2022-12-22T19:44:22.187Z,72.76
2022-12-22T19:46:51.221Z,72.71
2022-12-22T19:49:21.523Z,72.93
2022-12-22T19:51:49.925Z,72.42
2022-12-22T19:54:17.984Z,72.19
2022-12-22T19:56:50.735Z,72.40
2022-12-22T19:59:29.645Z,72.74
2022-12-22T20:02:00.732Z,72.41
2022-12-22T20:04:29.308Z,72.32
2022-12-22T20:06:57.415Z,72.57
2022-12-22T20:09:25.621Z,72.57
2022-12-22T20:11:54.979Z,71.72
2022-12-22T20:14:23.030Z,72.32
2022-12-22T20:16:51.041Z,71.60
2022-12-22T20:19:19.526Z,71.56
2022-12-22T20:21:47.475Z,71.92
2022-12-22T20:24:22.176Z,70.74
2022-12-22T20:26:54.137Z,71.20
2022-12-22T20:29:25.863Z,70.94
2022-12-22T20:31:54.001Z,71.26
2022-12-22T20:34:22.142Z,71.40
2022-12-22T20:36:50.222Z,71.24
2022-12-22T20:39:20.714Z,71.18
2022-12-22T20:41:53.498Z,70.86
2022-12-22T20:44:23.344Z,70.55
2022-12-22T20:46:52.746Z,70.91
2022-12-22T20:49:20.924Z,70.69
2022-12-22T20:51:49.085Z,71.06
2022-12-22T20:54:17.536Z,70.70
2022-12-22T20:56:45.990Z,70.68
2022-12-22T20:59:16.709Z,70.58
2022-12-22T21:01:45.068Z,70.71
2022-12-22T21:04:14.968Z,70.55
2022-12-22T21:06:48.114Z,70.53
2022-12-22T21:09:16.643Z,70.19
2022-12-22T21:11:45.261Z,70.19
2022-12-22T21:14:13.819Z,69.99
2022-12-22T21:16:42.912Z,70.06
2022-12-22T21:19:17.153Z,70.11
2022-12-22T21:21:45.062Z,70.33
2022-12-22T21:24:13.048Z,69.82
2022-12-22T21:26:43.716Z,69.80
2022-12-22T21:29:17.090Z,69.90
2022-12-22T21:31:45.060Z,69.89
2022-12-22T21:34:13.060Z,69.62
2022-12-22T21:36:45.069Z,69.50
2022-12-22T21:39:23.565Z,69.41
2022-12-22T21:42:05.306Z,69.30
2022-12-22T21:44:36.112Z,69.12
2022-12-22T21:47:05.134Z,68.95
2022-12-22T21:49:34.961Z,68.66
2022-12-22T21:52:04.632Z,68.85
2022-12-22T21:54:32.739Z,68.72
2022-12-22T21:57:01.195Z,68.83
2022-12-22T21:59:29.389Z,68.53
2022-12-22T22:01:57.460Z,68.34
2022-12-22T22:04:25.583Z,68.58
2022-12-22T22:06:53.536Z,68.58
2022-12-22T22:09:22.759Z,68.54
2022-12-22T22:12:08.418Z,68.79
2022-12-22T22:14:36.472Z,68.95
2022-12-22T22:17:04.697Z,68.90
2022-12-22T22:19:32.606Z,68.92
2022-12-22T22:22:00.749Z,68.70
2022-12-22T22:24:31.396Z,68.96
2022-12-22T22:26:59.455Z,69.03
2022-12-22T22:29:27.354Z,68.55
2022-12-22T22:31:55.309Z,68.32
2022-12-22T22:34:23.246Z,68.41
2022-12-22T22:36:52.363Z,68.36
2022-12-22T22:39:20.314Z,68.31
2022-12-22T22:41:49.738Z,68.68
2022-12-22T22:44:17.619Z,69.27
2022-12-22T22:46:45.603Z,68.90
2022-12-22T22:49:15.905Z,69.33
2022-12-22T22:51:45.150Z,69.20
2022-12-22T22:54:13.279Z,69.54
2022-12-22T22:56:41.340Z,69.14
2022-12-22T22:59:12.988Z,69.76
2022-12-22T23:01:41.953Z,69.78
2022-12-22T23:04:10.163Z,69.98
2022-12-22T23:06:38.205Z,70.05
2022-12-22T23:09:06.184Z,70.09
2022-12-22T23:11:34.113Z,70.05
2022-12-22T23:14:02.127Z,69.74
2022-12-22T23:16:37.762Z,69.55
2022-12-22T23:19:07.463Z,69.42
2022-12-22T23:21:35.633Z,70.00
2022-12-22T23:24:03.660Z,70.31
2022-12-22T23:26:31.798Z,70.03
2022-12-22T23:29:03.758Z,70.17
2022-12-22T23:31:36.089Z,70.08
2022-12-22T23:34:04.806Z,70.22
2022-12-22T23:36:33.179Z,70.31
2022-12-22T23:39:01.046Z,70.56
2022-12-22T23:41:29.030Z,70.81
2022-12-22T23:43:57.122Z,70.13
2022-12-22T23:46:25.361Z,70.28
2022-12-22T23:48:56.627Z,70.35
2022-12-22T23:51:26.682Z,70.27
2022-12-22T23:53:55.109Z,70.00
2022-12-22T23:56:23.370Z,70.04
2022-12-22T23:58:54.796Z,69.57
